sensor_id;sensor_type;location;lat;lon;timestamp;P1;durP1;ratioP1;P2;durP2;ratioP2
22184;SDS011;11258;52.516;13.318;2023-04-25T00:01:04;6.60;;;3.20;;
22184;SDS011;11258;52.516;13.318;2023-04-25T00:03:30;5.50;;;2.60;;
22184;SDS011;11258;52.516;13.318;2023-04-25T00:05:57;3.87;;;2.00;;
22184;SDS011;11258;52.516;13.318;2023-04-25T00:08:29;4.50;;;2.10;;
22184;SDS011;11258;52.516;13.318;2023-04-25T00:10:55;4.47;;;2.40;;
22184;SDS011;11258;52.516;13.318;2023-04-25T00:13:21;6.53;;;2.37;;
22184;SDS011;11258;52.516;13.318;2023-04-25T00:15:47;3.87;;;2.00;;
22184;SDS011;11258;52.516;13.318;2023-04-25T00:18:13;4.97;;;1.97;;
22184;SDS011;11258;52.516;13.318;2023-04-25T00:20:39;2.53;;;1.83;;
22184;SDS011;11258;52.516;13.318;2023-04-25T00:23:05;3.53;;;2.07;;
22184;SDS011;11258;52.516;13.318;2023-04-25T00:25:31;7.07;;;2.30;;
22184;SDS011;11258;52.516;13.318;2023-04-25T00:27:56;3.60;;;1.90;;
22184;SDS011;11258;52.516;13.318;2023-04-25T00:30:22;3.20;;;2.47;;
22184;SDS011;11258;52.516;13.318;2023-04-25T00:32:48;4.93;;;2.20;;
22184;SDS011;11258;52.516;13.318;2023-04-25T00:35:13;4.40;;;2.50;;
22184;SDS011;11258;52.516;13.318;2023-04-25T00:37:39;5.60;;;2.03;;
22184;SDS011;11258;52.516;13.318;2023-04-25T00:40:05;3.53;;;2.23;;
22184;SDS011;11258;52.516;13.318;2023-04-25T00:42:31;5.77;;;2.70;;
22184;SDS011;11258;52.516;13.318;2023-04-25T00:44:58;4.83;;;2.17;;
22184;SDS011;11258;52.516;13.318;2023-04-25T00:47:25;5.43;;;2.13;;
22184;SDS011;11258;52.516;13.318;2023-04-25T00:49:50;4.60;;;2.30;;
22184;SDS011;11258;52.516;13.318;2023-04-25T00:52:18;6.43;;;2.20;;
22184;SDS011;11258;52.516;13.318;2023-04-25T00:54:44;5.57;;;2.30;;
22184;SDS011;11258;52.516;13.318;2023-04-25T00:57:10;5.10;;;2.20;;
22184;SDS011;11258;52.516;13.318;2023-04-25T00:59:36;4.87;;;2.20;;
22184;SDS011;11258;52.516;13.318;2023-04-25T01:02:03;6.13;;;2.67;;
22184;SDS011;11258;52.516;13.318;2023-04-25T01:04:30;4.47;;;2.30;;
22184;SDS011;11258;52.516;13.318;2023-04-25T01:06:55;6.43;;;2.60;;
22184;SDS011;11258;52.516;13.318;2023-04-25T01:09:21;5.23;;;2.20;;
22184;SDS011;11258;52.516;13.318;2023-04-25T01:11:49;7.47;;;2.77;;
22184;SDS011;11258;52.516;13.318;2023-04-25T01:14:15;6.97;;;2.50;;
22184;SDS011;11258;52.516;13.318;2023-04-25T01:16:41;5.83;;;2.60;;
22184;SDS011;11258;52.516;13.318;2023-04-25T01:19:08;5.80;;;2.50;;
22184;SDS011;11258;52.516;13.318;2023-04-25T01:21:38;5.43;;;2.63;;
22184;SDS011;11258;52.516;13.318;2023-04-25T01:24:05;7.40;;;2.67;;
22184;SDS011;11258;52.516;13.318;2023-04-25T01:26:31;8.13;;;2.60;;
22184;SDS011;11258;52.516;13.318;2023-04-25T01:28:57;6.17;;;3.07;;
22184;SDS011;11258;52.516;13.318;2023-04-25T01:31:23;9.37;;;2.90;;
22184;SDS011;11258;52.516;13.318;2023-04-25T01:33:50;5.33;;;3.00;;
22184;SDS011;11258;52.516;13.318;2023-04-25T01:36:15;6.40;;;3.00;;
22184;SDS011;11258;52.516;13.318;2023-04-25T01:38:41;5.30;;;3.10;;
22184;SDS011;11258;52.516;13.318;2023-04-25T01:41:08;7.10;;;2.90;;
22184;SDS011;11258;52.516;13.318;2023-04-25T01:43:34;5.87;;;2.87;;
22184;SDS011;11258;52.516;13.318;2023-04-25T01:46:00;5.23;;;2.43;;
22184;SDS011;11258;52.516;13.318;2023-04-25T01:48:26;6.17;;;3.20;;
22184;SDS011;11258;52.516;13.318;2023-04-25T01:50:52;7.13;;;3.30;;
22184;SDS011;11258;52.516;13.318;2023-04-25T01:53:17;8.43;;;3.33;;
22184;SDS011;11258;52.516;13.318;2023-04-25T01:55:43;5.00;;;2.73;;
22184;SDS011;11258;52.516;13.318;2023-04-25T01:58:09;4.43;;;3.30;;
22184;SDS011;11258;52.516;13.318;2023-04-25T02:00:35;5.87;;;3.10;;
22184;SDS011;11258;52.516;13.318;2023-04-25T02:03:03;5.00;;;2.50;;
22184;SDS011;11258;52.516;13.318;2023-04-25T02:05:39;6.20;;;2.97;;
22184;SDS011;11258;52.516;13.318;2023-04-25T02:08:06;7.23;;;3.60;;
22184;SDS011;11258;52.516;13.318;2023-04-25T02:10:32;7.43;;;2.67;;
22184;SDS011;11258;52.516;13.318;2023-04-25T02:12:59;6.70;;;2.77;;
22184;SDS011;11258;52.516;13.318;2023-04-25T02:15:25;5.33;;;3.07;;
22184;SDS011;11258;52.516;13.318;2023-04-25T02:17:50;9.47;;;3.90;;
22184;SDS011;11258;52.516;13.318;2023-04-25T02:20:20;9.27;;;3.20;;
22184;SDS011;11258;52.516;13.318;2023-04-25T02:22:46;6.97;;;3.00;;
22184;SDS011;11258;52.516;13.318;2023-04-25T02:25:12;8.47;;;3.23;;
22184;SDS011;11258;52.516;13.318;2023-04-25T02:27:38;5.60;;;3.20;;
22184;SDS011;11258;52.516;13.318;2023-04-25T02:30:04;9.60;;;3.60;;
22184;SDS011;11258;52.516;13.318;2023-04-25T02:32:31;6.17;;;3.80;;
22184;SDS011;11258;52.516;13.318;2023-04-25T02:34:59;5.70;;;3.37;;
22184;SDS011;11258;52.516;13.318;2023-04-25T02:37:29;11.63;;;3.97;;
22184;SDS011;11258;52.516;13.318;2023-04-25T02:39:55;6.63;;;3.53;;
22184;SDS011;11258;52.516;13.318;2023-04-25T02:42:20;6.03;;;3.60;;
22184;SDS011;11258;52.516;13.318;2023-04-25T02:44:46;5.63;;;3.40;;
22184;SDS011;11258;52.516;13.318;2023-04-25T02:47:12;7.10;;;3.53;;
22184;SDS011;11258;52.516;13.318;2023-04-25T02:49:37;11.27;;;4.17;;
22184;SDS011;11258;52.516;13.318;2023-04-25T02:52:03;9.60;;;3.63;;
22184;SDS011;11258;52.516;13.318;2023-04-25T02:54:29;6.23;;;3.50;;
22184;SDS011;11258;52.516;13.318;2023-04-25T02:56:55;6.20;;;3.50;;
22184;SDS011;11258;52.516;13.318;2023-04-25T02:59:20;8.37;;;3.43;;
22184;SDS011;11258;52.516;13.318;2023-04-25T03:01:46;5.03;;;3.37;;
22184;SDS011;11258;52.516;13.318;2023-04-25T03:04:12;7.50;;;3.80;;
22184;SDS011;11258;52.516;13.318;2023-04-25T03:06:37;8.60;;;3.17;;
22184;SDS011;11258;52.516;13.318;2023-04-25T03:09:03;5.07;;;3.30;;
22184;SDS011;11258;52.516;13.318;2023-04-25T03:11:29;7.67;;;3.60;;
22184;SDS011;11258;52.516;13.318;2023-04-25T03:13:54;8.83;;;3.33;;
22184;SDS011;11258;52.516;13.318;2023-04-25T03:16:21;6.87;;;3.47;;
22184;SDS011;11258;52.516;13.318;2023-04-25T03:18:47;9.00;;;3.83;;
22184;SDS011;11258;52.516;13.318;2023-04-25T03:21:12;7.03;;;3.97;;
22184;SDS011;11258;52.516;13.318;2023-04-25T03:23:38;7.03;;;3.10;;
22184;SDS011;11258;52.516;13.318;2023-04-25T03:26:03;5.77;;;3.53;;
22184;SDS011;11258;52.516;13.318;2023-04-25T03:28:29;8.37;;;4.13;;
22184;SDS011;11258;52.516;13.318;2023-04-25T03:30:55;7.23;;;3.93;;
22184;SDS011;11258;52.516;13.318;2023-04-25T03:33:20;6.97;;;3.93;;
22184;SDS011;11258;52.516;13.318;2023-04-25T03:35:46;7.57;;;4.00;;
22184;SDS011;11258;52.516;13.318;2023-04-25T03:38:12;7.70;;;4.50;;
22184;SDS011;11258;52.516;13.318;2023-04-25T03:40:37;9.23;;;4.57;;
22184;SDS011;11258;52.516;13.318;2023-04-25T03:43:03;8.63;;;3.93;;
22184;SDS011;11258;52.516;13.318;2023-04-25T03:45:29;7.83;;;3.57;;
22184;SDS011;11258;52.516;13.318;2023-04-25T03:47:55;6.47;;;4.33;;
22184;SDS011;11258;52.516;13.318;2023-04-25T03:50:20;7.03;;;3.90;;
22184;SDS011;11258;52.516;13.318;2023-04-25T03:52:46;11.93;;;4.03;;
22184;SDS011;11258;52.516;13.318;2023-04-25T03:55:11;9.03;;;4.37;;
22184;SDS011;11258;52.516;13.318;2023-04-25T03:57:37;7.90;;;3.90;;
22184;SDS011;11258;52.516;13.318;2023-04-25T04:00:03;10.73;;;4.40;;
22184;SDS011;11258;52.516;13.318;2023-04-25T04:02:29;10.50;;;4.13;;
22184;SDS011;11258;52.516;13.318;2023-04-25T04:04:55;8.00;;;3.80;;
22184;SDS011;11258;52.516;13.318;2023-04-25T04:07:21;9.03;;;3.67;;
22184;SDS011;11258;52.516;13.318;2023-04-25T04:09:47;11.10;;;4.13;;
22184;SDS011;11258;52.516;13.318;2023-04-25T04:12:12;9.60;;;4.23;;
22184;SDS011;11258;52.516;13.318;2023-04-25T04:14:38;8.07;;;3.90;;
22184;SDS011;11258;52.516;13.318;2023-04-25T04:17:04;6.67;;;3.63;;
22184;SDS011;11258;52.516;13.318;2023-04-25T04:19:30;8.60;;;3.57;;
22184;SDS011;11258;52.516;13.318;2023-04-25T04:21:56;10.07;;;5.43;;
22184;SDS011;11258;52.516;13.318;2023-04-25T04:24:22;8.03;;;3.77;;
22184;SDS011;11258;52.516;13.318;2023-04-25T04:26:47;9.80;;;4.37;;
22184;SDS011;11258;52.516;13.318;2023-04-25T04:29:13;7.30;;;3.83;;
22184;SDS011;11258;52.516;13.318;2023-04-25T04:31:45;7.77;;;3.60;;
22184;SDS011;11258;52.516;13.318;2023-04-25T04:34:15;7.43;;;4.10;;
22184;SDS011;11258;52.516;13.318;2023-04-25T04:36:42;6.60;;;3.60;;
22184;SDS011;11258;52.516;13.318;2023-04-25T04:39:10;7.57;;;4.07;;
22184;SDS011;11258;52.516;13.318;2023-04-25T04:41:35;6.57;;;3.60;;
22184;SDS011;11258;52.516;13.318;2023-04-25T04:44:01;9.37;;;4.07;;
22184;SDS011;11258;52.516;13.318;2023-04-25T04:46:27;8.70;;;3.60;;
22184;SDS011;11258;52.516;13.318;2023-04-25T04:48:53;6.20;;;3.50;;
22184;SDS011;11258;52.516;13.318;2023-04-25T04:51:21;7.20;;;3.50;;
22184;SDS011;11258;52.516;13.318;2023-04-25T04:53:46;9.00;;;4.03;;
22184;SDS011;11258;52.516;13.318;2023-04-25T04:56:12;10.33;;;4.00;;
22184;SDS011;11258;52.516;13.318;2023-04-25T04:58:38;8.27;;;3.83;;
22184;SDS011;11258;52.516;13.318;2023-04-25T05:01:03;9.87;;;3.50;;
22184;SDS011;11258;52.516;13.318;2023-04-25T05:03:30;6.50;;;3.43;;
22184;SDS011;11258;52.516;13.318;2023-04-25T05:05:55;11.47;;;3.83;;
22184;SDS011;11258;52.516;13.318;2023-04-25T05:08:21;7.83;;;3.67;;
22184;SDS011;11258;52.516;13.318;2023-04-25T05:10:46;8.57;;;3.70;;
22184;SDS011;11258;52.516;13.318;2023-04-25T05:13:12;7.83;;;3.73;;
22184;SDS011;11258;52.516;13.318;2023-04-25T05:15:38;9.60;;;4.10;;
22184;SDS011;11258;52.516;13.318;2023-04-25T05:18:03;9.40;;;4.17;;
22184;SDS011;11258;52.516;13.318;2023-04-25T05:20:29;10.07;;;4.60;;
22184;SDS011;11258;52.516;13.318;2023-04-25T05:22:55;8.57;;;4.47;;
22184;SDS011;11258;52.516;13.318;2023-04-25T05:25:20;9.27;;;3.93;;
22184;SDS011;11258;52.516;13.318;2023-04-25T05:27:46;10.83;;;3.83;;
22184;SDS011;11258;52.516;13.318;2023-04-25T05:30:11;9.77;;;4.40;;
22184;SDS011;11258;52.516;13.318;2023-04-25T05:32:37;8.57;;;3.67;;
22184;SDS011;11258;52.516;13.318;2023-04-25T05:35:03;8.73;;;3.77;;
22184;SDS011;11258;52.516;13.318;2023-04-25T05:37:28;11.50;;;5.27;;
22184;SDS011;11258;52.516;13.318;2023-04-25T05:39:56;8.23;;;3.77;;
22184;SDS011;11258;52.516;13.318;2023-04-25T05:42:21;7.40;;;4.13;;
22184;SDS011;11258;52.516;13.318;2023-04-25T05:44:47;8.30;;;4.00;;
22184;SDS011;11258;52.516;13.318;2023-04-25T05:47:13;9.23;;;4.47;;
22184;SDS011;11258;52.516;13.318;2023-04-25T05:49:38;9.60;;;4.00;;
22184;SDS011;11258;52.516;13.318;2023-04-25T05:52:04;9.40;;;5.20;;
22184;SDS011;11258;52.516;13.318;2023-04-25T05:54:30;10.63;;;4.30;;
22184;SDS011;11258;52.516;13.318;2023-04-25T05:56:58;7.77;;;4.70;;
22184;SDS011;11258;52.516;13.318;2023-04-25T05:59:24;10.67;;;5.17;;
22184;SDS011;11258;52.516;13.318;2023-04-25T06:01:50;8.00;;;5.40;;
22184;SDS011;11258;52.516;13.318;2023-04-25T06:04:16;12.63;;;4.57;;
22184;SDS011;11258;52.516;13.318;2023-04-25T06:06:42;10.07;;;5.00;;
22184;SDS011;11258;52.516;13.318;2023-04-25T06:09:07;5.13;;;3.73;;
22184;SDS011;11258;52.516;13.318;2023-04-25T06:11:33;6.50;;;4.50;;
22184;SDS011;11258;52.516;13.318;2023-04-25T06:13:59;11.27;;;4.93;;
22184;SDS011;11258;52.516;13.318;2023-04-25T06:16:25;10.40;;;4.73;;
22184;SDS011;11258;52.516;13.318;2023-04-25T06:18:51;11.13;;;4.40;;
22184;SDS011;11258;52.516;13.318;2023-04-25T06:21:16;7.70;;;4.70;;
22184;SDS011;11258;52.516;13.318;2023-04-25T06:23:42;6.47;;;4.70;;
22184;SDS011;11258;52.516;13.318;2023-04-25T06:26:07;12.17;;;4.77;;
22184;SDS011;11258;52.516;13.318;2023-04-25T06:28:33;9.77;;;4.87;;
22184;SDS011;11258;52.516;13.318;2023-04-25T06:30:59;9.53;;;4.80;;
22184;SDS011;11258;52.516;13.318;2023-04-25T06:33:24;10.03;;;4.73;;
22184;SDS011;11258;52.516;13.318;2023-04-25T06:35:50;6.83;;;4.33;;
22184;SDS011;11258;52.516;13.318;2023-04-25T06:38:15;11.47;;;4.50;;
22184;SDS011;11258;52.516;13.318;2023-04-25T06:40:41;11.63;;;5.43;;
22184;SDS011;11258;52.516;13.318;2023-04-25T06:43:07;6.50;;;4.40;;
22184;SDS011;11258;52.516;13.318;2023-04-25T06:45:32;15.33;;;5.97;;
22184;SDS011;11258;52.516;13.318;2023-04-25T06:47:58;10.93;;;4.53;;
22184;SDS011;11258;52.516;13.318;2023-04-25T06:50:24;8.27;;;4.57;;
22184;SDS011;11258;52.516;13.318;2023-04-25T06:52:49;8.40;;;4.43;;
22184;SDS011;11258;52.516;13.318;2023-04-25T06:55:15;6.63;;;3.90;;
22184;SDS011;11258;52.516;13.318;2023-04-25T06:57:41;7.17;;;4.27;;
22184;SDS011;11258;52.516;13.318;2023-04-25T07:00:06;11.87;;;4.57;;
22184;SDS011;11258;52.516;13.318;2023-04-25T07:02:35;9.90;;;5.63;;
22184;SDS011;11258;52.516;13.318;2023-04-25T07:05:01;9.80;;;4.47;;
22184;SDS011;11258;52.516;13.318;2023-04-25T07:07:29;12.37;;;5.00;;
22184;SDS011;11258;52.516;13.318;2023-04-25T07:09:55;8.57;;;4.40;;
22184;SDS011;11258;52.516;13.318;2023-04-25T07:12:21;12.27;;;5.20;;
22184;SDS011;11258;52.516;13.318;2023-04-25T07:14:47;9.93;;;5.00;;
22184;SDS011;11258;52.516;13.318;2023-04-25T07:17:12;7.07;;;3.73;;
22184;SDS011;11258;52.516;13.318;2023-04-25T07:19:38;6.77;;;4.13;;
22184;SDS011;11258;52.516;13.318;2023-04-25T07:22:05;9.67;;;4.37;;
22184;SDS011;11258;52.516;13.318;2023-04-25T07:24:31;8.03;;;3.57;;
22184;SDS011;11258;52.516;13.318;2023-04-25T07:26:57;9.20;;;3.50;;
22184;SDS011;11258;52.516;13.318;2023-04-25T07:29:23;8.43;;;3.93;;
22184;SDS011;11258;52.516;13.318;2023-04-25T07:31:49;10.23;;;3.97;;
22184;SDS011;11258;52.516;13.318;2023-04-25T07:34:15;8.07;;;4.30;;
22184;SDS011;11258;52.516;13.318;2023-04-25T07:36:40;13.60;;;4.67;;
22184;SDS011;11258;52.516;13.318;2023-04-25T07:39:06;13.33;;;5.10;;
22184;SDS011;11258;52.516;13.318;2023-04-25T07:41:34;14.97;;;5.47;;
22184;SDS011;11258;52.516;13.318;2023-04-25T07:43:59;13.43;;;4.63;;
22184;SDS011;11258;52.516;13.318;2023-04-25T07:46:25;12.83;;;3.93;;
22184;SDS011;11258;52.516;13.318;2023-04-25T07:48:51;13.53;;;5.10;;
22184;SDS011;11258;52.516;13.318;2023-04-25T07:51:16;13.07;;;4.27;;
22184;SDS011;11258;52.516;13.318;2023-04-25T07:53:44;16.40;;;4.67;;
22184;SDS011;11258;52.516;13.318;2023-04-25T07:56:10;22.47;;;4.63;;
22184;SDS011;11258;52.516;13.318;2023-04-25T07:58:36;15.13;;;4.77;;
22184;SDS011;11258;52.516;13.318;2023-04-25T08:01:02;18.33;;;5.70;;
22184;SDS011;11258;52.516;13.318;2023-04-25T08:03:28;16.37;;;5.00;;
22184;SDS011;11258;52.516;13.318;2023-04-25T08:05:53;15.73;;;4.13;;
22184;SDS011;11258;52.516;13.318;2023-04-25T08:08:19;19.83;;;4.83;;
22184;SDS011;11258;52.516;13.318;2023-04-25T08:10:44;24.70;;;4.47;;
22184;SDS011;11258;52.516;13.318;2023-04-25T08:13:10;17.47;;;4.27;;
22184;SDS011;11258;52.516;13.318;2023-04-25T08:15:36;19.70;;;5.07;;
22184;SDS011;11258;52.516;13.318;2023-04-25T08:18:01;13.37;;;3.47;;
22184;SDS011;11258;52.516;13.318;2023-04-25T08:20:27;20.43;;;4.43;;
22184;SDS011;11258;52.516;13.318;2023-04-25T08:22:53;15.17;;;4.60;;
22184;SDS011;11258;52.516;13.318;2023-04-25T08:25:19;16.40;;;4.33;;
22184;SDS011;11258;52.516;13.318;2023-04-25T08:27:44;15.67;;;4.43;;
22184;SDS011;11258;52.516;13.318;2023-04-25T08:30:10;17.73;;;4.63;;
22184;SDS011;11258;52.516;13.318;2023-04-25T08:32:36;11.30;;;4.23;;
22184;SDS011;11258;52.516;13.318;2023-04-25T08:35:03;17.50;;;4.23;;
22184;SDS011;11258;52.516;13.318;2023-04-25T08:37:29;17.67;;;4.37;;
22184;SDS011;11258;52.516;13.318;2023-04-25T08:39:55;14.97;;;3.70;;
22184;SDS011;11258;52.516;13.318;2023-04-25T08:42:21;11.23;;;3.97;;
22184;SDS011;11258;52.516;13.318;2023-04-25T08:44:48;16.53;;;6.93;;
22184;SDS011;11258;52.516;13.318;2023-04-25T08:47:14;14.50;;;5.63;;
22184;SDS011;11258;52.516;13.318;2023-04-25T08:49:40;9.97;;;3.63;;
22184;SDS011;11258;52.516;13.318;2023-04-25T08:52:11;11.57;;;2.93;;
22184;SDS011;11258;52.516;13.318;2023-04-25T08:54:41;9.07;;;3.33;;
22184;SDS011;11258;52.516;13.318;2023-04-25T08:57:11;11.35;;;3.20;;
22184;SDS011;11258;52.516;13.318;2023-04-25T08:59:37;11.38;;;3.00;;
22184;SDS011;11258;52.516;13.318;2023-04-25T09:02:05;11.43;;;3.87;;
22184;SDS011;11258;52.516;13.318;2023-04-25T09:04:31;13.60;;;3.65;;
22184;SDS011;11258;52.516;13.318;2023-04-25T09:06:57;9.13;;;3.08;;
22184;SDS011;11258;52.516;13.318;2023-04-25T09:09:23;10.23;;;3.70;;
22184;SDS011;11258;52.516;13.318;2023-04-25T09:11:49;11.05;;;3.17;;
22184;SDS011;11258;52.516;13.318;2023-04-25T09:14:19;12.10;;;3.58;;
22184;SDS011;11258;52.516;13.318;2023-04-25T09:19:21;15.70;;;3.45;;
22184;SDS011;11258;52.516;13.318;2023-04-25T09:21:53;13.90;;;3.13;;
22184;SDS011;11258;52.516;13.318;2023-04-25T09:24:41;14.80;;;3.55;;
22184;SDS011;11258;52.516;13.318;2023-04-25T09:27:09;8.75;;;3.30;;
22184;SDS011;11258;52.516;13.318;2023-04-25T09:29:36;11.93;;;3.30;;
22184;SDS011;11258;52.516;13.318;2023-04-25T09:32:19;7.40;;;2.92;;
22184;SDS011;11258;52.516;13.318;2023-04-25T09:34:47;12.07;;;3.20;;
22184;SDS011;11258;52.516;13.318;2023-04-25T09:37:21;9.80;;;3.90;;
22184;SDS011;11258;52.516;13.318;2023-04-25T09:39:54;10.25;;;2.58;;
22184;SDS011;11258;52.516;13.318;2023-04-25T09:42:26;11.30;;;2.65;;
22184;SDS011;11258;52.516;13.318;2023-04-25T09:44:56;10.70;;;2.58;;
22184;SDS011;11258;52.516;13.318;2023-04-25T09:47:23;9.07;;;2.80;;
22184;SDS011;11258;52.516;13.318;2023-04-25T09:49:50;12.90;;;3.20;;
22184;SDS011;11258;52.516;13.318;2023-04-25T09:52:17;10.77;;;3.43;;
22184;SDS011;11258;52.516;13.318;2023-04-25T09:54:47;9.20;;;2.67;;
22184;SDS011;11258;52.516;13.318;2023-04-25T09:57:15;13.83;;;3.40;;
22184;SDS011;11258;52.516;13.318;2023-04-25T09:59:43;11.07;;;2.30;;
22184;SDS011;11258;52.516;13.318;2023-04-25T10:02:14;10.50;;;2.80;;
22184;SDS011;11258;52.516;13.318;2023-04-25T10:04:42;10.73;;;2.50;;
22184;SDS011;11258;52.516;13.318;2023-04-25T10:07:12;13.98;;;2.80;;
22184;SDS011;11258;52.516;13.318;2023-04-25T10:09:39;7.78;;;2.28;;
22184;SDS011;11258;52.516;13.318;2023-04-25T10:12:05;10.70;;;2.80;;
22184;SDS011;11258;52.516;13.318;2023-04-25T10:14:32;8.70;;;2.77;;
22184;SDS011;11258;52.516;13.318;2023-04-25T10:16:59;9.80;;;2.97;;
22184;SDS011;11258;52.516;13.318;2023-04-25T10:19:25;7.60;;;2.33;;
22184;SDS011;11258;52.516;13.318;2023-04-25T10:24:51;8.10;;;2.90;;
22184;SDS011;11258;52.516;13.318;2023-04-25T10:27:17;10.60;;;4.23;;
22184;SDS011;11258;52.516;13.318;2023-04-25T10:29:43;10.40;;;3.23;;
22184;SDS011;11258;52.516;13.318;2023-04-25T10:32:09;8.33;;;2.83;;
22184;SDS011;11258;52.516;13.318;2023-04-25T10:34:41;10.50;;;2.70;;
22184;SDS011;11258;52.516;13.318;2023-04-25T10:37:09;7.07;;;2.30;;
22184;SDS011;11258;52.516;13.318;2023-04-25T10:39:36;7.73;;;3.33;;
22184;SDS011;11258;52.516;13.318;2023-04-25T10:42:06;8.03;;;3.03;;
22184;SDS011;11258;52.516;13.318;2023-04-25T10:44:33;9.27;;;2.50;;
22184;SDS011;11258;52.516;13.318;2023-04-25T10:47:00;12.03;;;2.93;;
22184;SDS011;11258;52.516;13.318;2023-04-25T10:49:48;12.13;;;2.97;;
22184;SDS011;11258;52.516;13.318;2023-04-25T10:54:52;11.13;;;3.20;;
22184;SDS011;11258;52.516;13.318;2023-04-25T11:00:10;9.03;;;2.60;;
22184;SDS011;11258;52.516;13.318;2023-04-25T11:02:37;8.80;;;2.50;;
22184;SDS011;11258;52.516;13.318;2023-04-25T11:05:07;3.77;;;1.53;;
22184;SDS011;11258;52.516;13.318;2023-04-25T11:07:44;9.63;;;2.23;;
22184;SDS011;11258;52.516;13.318;2023-04-25T11:10:16;7.87;;;2.60;;
22184;SDS011;11258;52.516;13.318;2023-04-25T11:12:42;8.70;;;2.83;;
22184;SDS011;11258;52.516;13.318;2023-04-25T11:15:09;9.87;;;2.70;;
22184;SDS011;11258;52.516;13.318;2023-04-25T11:17:35;15.07;;;3.43;;
22184;SDS011;11258;52.516;13.318;2023-04-25T11:20:01;8.13;;;2.40;;
22184;SDS011;11258;52.516;13.318;2023-04-25T11:22:32;8.70;;;2.50;;
22184;SDS011;11258;52.516;13.318;2023-04-25T11:25:04;7.10;;;2.13;;
22184;SDS011;11258;52.516;13.318;2023-04-25T11:27:30;7.13;;;2.50;;
22184;SDS011;11258;52.516;13.318;2023-04-25T11:29:56;4.40;;;1.60;;
22184;SDS011;11258;52.516;13.318;2023-04-25T11:32:21;5.20;;;1.87;;
22184;SDS011;11258;52.516;13.318;2023-04-25T11:34:48;11.50;;;2.20;;
22184;SDS011;11258;52.516;13.318;2023-04-25T11:37:13;8.47;;;2.30;;
22184;SDS011;11258;52.516;13.318;2023-04-25T11:39:43;6.53;;;2.67;;
22184;SDS011;11258;52.516;13.318;2023-04-25T11:42:12;4.10;;;1.33;;
22184;SDS011;11258;52.516;13.318;2023-04-25T11:44:39;5.60;;;1.87;;
22184;SDS011;11258;52.516;13.318;2023-04-25T11:47:05;8.70;;;2.10;;
22184;SDS011;11258;52.516;13.318;2023-04-25T11:49:31;7.23;;;2.50;;
22184;SDS011;11258;52.516;13.318;2023-04-25T11:51:57;15.03;;;6.37;;
22184;SDS011;11258;52.516;13.318;2023-04-25T11:54:22;13.30;;;5.13;;
22184;SDS011;11258;52.516;13.318;2023-04-25T11:56:48;21.33;;;10.13;;
22184;SDS011;11258;52.516;13.318;2023-04-25T11:59:14;6.53;;;3.10;;
22184;SDS011;11258;52.516;13.318;2023-04-25T12:01:46;9.43;;;2.23;;
22184;SDS011;11258;52.516;13.318;2023-04-25T12:06:40;8.00;;;2.57;;
22184;SDS011;11258;52.516;13.318;2023-04-25T12:09:10;8.40;;;2.43;;
22184;SDS011;11258;52.516;13.318;2023-04-25T12:11:44;9.03;;;2.40;;
22184;SDS011;11258;52.516;13.318;2023-04-25T12:14:12;6.57;;;2.27;;
22184;SDS011;11258;52.516;13.318;2023-04-25T12:16:45;5.33;;;2.00;;
22184;SDS011;11258;52.516;13.318;2023-04-25T12:19:15;10.33;;;2.47;;
22184;SDS011;11258;52.516;13.318;2023-04-25T12:21:41;5.80;;;2.27;;
22184;SDS011;11258;52.516;13.318;2023-04-25T12:24:18;9.67;;;2.10;;
22184;SDS011;11258;52.516;13.318;2023-04-25T12:26:50;4.93;;;2.03;;
22184;SDS011;11258;52.516;13.318;2023-04-25T12:29:21;6.97;;;2.17;;
22184;SDS011;11258;52.516;13.318;2023-04-25T12:31:49;5.50;;;1.97;;
22184;SDS011;11258;52.516;13.318;2023-04-25T12:34:16;6.83;;;2.40;;
22184;SDS011;11258;52.516;13.318;2023-04-25T12:36:42;8.10;;;3.07;;
22184;SDS011;11258;52.516;13.318;2023-04-25T12:39:08;8.17;;;2.30;;
22184;SDS011;11258;52.516;13.318;2023-04-25T12:41:40;6.67;;;2.17;;
22184;SDS011;11258;52.516;13.318;2023-04-25T12:44:06;6.50;;;2.20;;
22184;SDS011;11258;52.516;13.318;2023-04-25T12:46:31;6.10;;;2.00;;
22184;SDS011;11258;52.516;13.318;2023-04-25T12:48:57;7.00;;;2.10;;
22184;SDS011;11258;52.516;13.318;2023-04-25T12:51:23;9.13;;;1.73;;
22184;SDS011;11258;52.516;13.318;2023-04-25T12:53:50;6.50;;;2.20;;
22184;SDS011;11258;52.516;13.318;2023-04-25T12:56:16;7.50;;;1.90;;
22184;SDS011;11258;52.516;13.318;2023-04-25T12:58:42;6.73;;;1.90;;
22184;SDS011;11258;52.516;13.318;2023-04-25T13:01:09;6.93;;;2.10;;
22184;SDS011;11258;52.516;13.318;2023-04-25T13:03:34;4.33;;;2.13;;
22184;SDS011;11258;52.516;13.318;2023-04-25T13:06:00;3.03;;;1.90;;
22184;SDS011;11258;52.516;13.318;2023-04-25T13:08:26;8.53;;;2.83;;
22184;SDS011;11258;52.516;13.318;2023-04-25T13:10:51;6.70;;;1.80;;
22184;SDS011;11258;52.516;13.318;2023-04-25T13:13:17;6.13;;;1.20;;
22184;SDS011;11258;52.516;13.318;2023-04-25T13:15:43;3.20;;;1.47;;
22184;SDS011;11258;52.516;13.318;2023-04-25T13:18:08;6.57;;;1.40;;
22184;SDS011;11258;52.516;13.318;2023-04-25T13:20:34;3.77;;;1.53;;
22184;SDS011;11258;52.516;13.318;2023-04-25T13:23:00;2.93;;;1.30;;
22184;SDS011;11258;52.516;13.318;2023-04-25T13:25:25;7.13;;;1.60;;
22184;SDS011;11258;52.516;13.318;2023-04-25T13:27:51;5.50;;;1.60;;
22184;SDS011;11258;52.516;13.318;2023-04-25T13:30:17;5.07;;;1.63;;
22184;SDS011;11258;52.516;13.318;2023-04-25T13:32:43;5.87;;;1.53;;
22184;SDS011;11258;52.516;13.318;2023-04-25T13:35:09;9.73;;;1.90;;
22184;SDS011;11258;52.516;13.318;2023-04-25T13:37:38;4.90;;;1.70;;
22184;SDS011;11258;52.516;13.318;2023-04-25T13:40:05;6.33;;;1.70;;
22184;SDS011;11258;52.516;13.318;2023-04-25T13:42:34;6.17;;;1.90;;
22184;SDS011;11258;52.516;13.318;2023-04-25T13:45:00;5.80;;;1.83;;
22184;SDS011;11258;52.516;13.318;2023-04-25T13:47:26;6.33;;;2.30;;
22184;SDS011;11258;52.516;13.318;2023-04-25T13:49:52;9.02;;;2.40;;
22184;SDS011;11258;52.516;13.318;2023-04-25T13:52:18;5.13;;;1.53;;
22184;SDS011;11258;52.516;13.318;2023-04-25T13:54:43;9.77;;;2.73;;
22184;SDS011;11258;52.516;13.318;2023-04-25T13:57:09;16.80;;;7.47;;
22184;SDS011;11258;52.516;13.318;2023-04-25T13:59:36;9.47;;;1.97;;
22184;SDS011;11258;52.516;13.318;2023-04-25T14:02:01;4.83;;;2.00;;
22184;SDS011;11258;52.516;13.318;2023-04-25T14:04:27;3.73;;;1.93;;
22184;SDS011;11258;52.516;13.318;2023-04-25T14:06:53;4.37;;;2.10;;
22184;SDS011;11258;52.516;13.318;2023-04-25T14:09:19;11.70;;;2.13;;
22184;SDS011;11258;52.516;13.318;2023-04-25T14:11:47;7.20;;;2.13;;
22184;SDS011;11258;52.516;13.318;2023-04-25T14:14:13;5.40;;;1.83;;
22184;SDS011;11258;52.516;13.318;2023-04-25T14:16:41;6.83;;;1.80;;
22184;SDS011;11258;52.516;13.318;2023-04-25T14:19:06;3.73;;;1.47;;
22184;SDS011;11258;52.516;13.318;2023-04-25T14:21:32;4.23;;;1.63;;
22184;SDS011;11258;52.516;13.318;2023-04-25T14:23:58;6.83;;;1.93;;
22184;SDS011;11258;52.516;13.318;2023-04-25T14:26:23;4.60;;;1.37;;
22184;SDS011;11258;52.516;13.318;2023-04-25T14:28:49;3.77;;;1.40;;
22184;SDS011;11258;52.516;13.318;2023-04-25T14:31:16;7.23;;;2.00;;
22184;SDS011;11258;52.516;13.318;2023-04-25T14:33:42;4.90;;;1.67;;
22184;SDS011;11258;52.516;13.318;2023-04-25T14:36:08;5.83;;;1.97;;
22184;SDS011;11258;52.516;13.318;2023-04-25T14:38:34;2.80;;;1.30;;
22184;SDS011;11258;52.516;13.318;2023-04-25T14:41:00;5.07;;;1.40;;